sensor_id;sensor_type;location;lat;lon;timestamp;P1;durP1;ratioP1;P2;durP2;ratioP2
5343;SDS011;2694;48.954;8.928;2023-03-31T00:01:18;9.68;;;1.90;;
5343;SDS011;2694;48.954;8.928;2023-03-31T00:03:45;4.65;;;1.60;;
5343;SDS011;2694;48.954;8.928;2023-03-31T00:06:12;1.90;;;1.10;;
5343;SDS011;2694;48.954;8.928;2023-03-31T00:08:42;6.88;;;1.50;;
5343;SDS011;2694;48.954;8.928;2023-03-31T00:11:10;3.88;;;1.80;;
5343;SDS011;2694;48.954;8.928;2023-03-31T00:13:37;12.85;;;4.63;;
5343;SDS011;2694;48.954;8.928;2023-03-31T00:16:05;8.98;;;2.47;;
5343;SDS011;2694;48.954;8.928;2023-03-31T00:18:34;6.78;;;1.90;;
5343;SDS011;2694;48.954;8.928;2023-03-31T00:21:06;5.78;;;2.00;;
5343;SDS011;2694;48.954;8.928;2023-03-31T00:23:38;6.80;;;1.60;;
5343;SDS011;2694;48.954;8.928;2023-03-31T00:26:05;9.27;;;1.60;;
5343;SDS011;2694;48.954;8.928;2023-03-31T00:28:34;5.72;;;1.70;;
5343;SDS011;2694;48.954;8.928;2023-03-31T00:31:01;4.28;;;2.00;;
5343;SDS011;2694;48.954;8.928;2023-03-31T00:33:28;6.10;;;1.90;;
5343;SDS011;2694;48.954;8.928;2023-03-31T00:35:55;3.53;;;1.42;;
5343;SDS011;2694;48.954;8.928;2023-03-31T00:38:26;6.57;;;2.10;;
5343;SDS011;2694;48.954;8.928;2023-03-31T00:40:54;3.85;;;1.80;;
5343;SDS011;2694;48.954;8.928;2023-03-31T00:43:26;9.45;;;1.88;;
5343;SDS011;2694;48.954;8.928;2023-03-31T00:45:59;7.50;;;2.08;;
5343;SDS011;2694;48.954;8.928;2023-03-31T00:48:31;6.55;;;1.67;;
5343;SDS011;2694;48.954;8.928;2023-03-31T00:50:58;6.35;;;1.85;;
5343;SDS011;2694;48.954;8.928;2023-03-31T00:53:29;4.43;;;1.75;;
5343;SDS011;2694;48.954;8.928;2023-03-31T00:55:58;4.25;;;1.85;;
5343;SDS011;2694;48.954;8.928;2023-03-31T00:58:28;9.30;;;2.00;;
5343;SDS011;2694;48.954;8.928;2023-03-31T01:00:57;6.10;;;1.80;;
5343;SDS011;2694;48.954;8.928;2023-03-31T01:03:28;4.50;;;1.88;;
5343;SDS011;2694;48.954;8.928;2023-03-31T01:05:58;7.63;;;2.33;;
5343;SDS011;2694;48.954;8.928;2023-03-31T01:08:29;5.57;;;2.20;;
5343;SDS011;2694;48.954;8.928;2023-03-31T01:10:58;5.68;;;1.67;;
5343;SDS011;2694;48.954;8.928;2023-03-31T01:13:28;3.65;;;1.60;;
5343;SDS011;2694;48.954;8.928;2023-03-31T01:15:56;6.85;;;2.05;;
5343;SDS011;2694;48.954;8.928;2023-03-31T01:18:24;7.00;;;2.08;;
5343;SDS011;2694;48.954;8.928;2023-03-31T01:21:01;4.22;;;1.40;;
5343;SDS011;2694;48.954;8.928;2023-03-31T01:27:00;3.40;;;1.50;;
5343;SDS011;2694;48.954;8.928;2023-03-31T01:29:43;6.47;;;1.40;;
5343;SDS011;2694;48.954;8.928;2023-03-31T01:32:50;7.78;;;1.83;;
5343;SDS011;2694;48.954;8.928;2023-03-31T01:35:43;4.38;;;1.50;;
5343;SDS011;2694;48.954;8.928;2023-03-31T01:39:02;6.32;;;1.45;;
5343;SDS011;2694;48.954;8.928;2023-03-31T01:41:57;9.60;;;1.52;;
5343;SDS011;2694;48.954;8.928;2023-03-31T01:44:32;6.90;;;1.50;;
5343;SDS011;2694;48.954;8.928;2023-03-31T01:47:09;7.20;;;1.42;;
5343;SDS011;2694;48.954;8.928;2023-03-31T01:49:42;2.78;;;1.33;;
5343;SDS011;2694;48.954;8.928;2023-03-31T01:52:18;9.40;;;1.40;;
5343;SDS011;2694;48.954;8.928;2023-03-31T01:54:48;3.40;;;1.30;;
5343;SDS011;2694;48.954;8.928;2023-03-31T01:57:21;11.90;;;1.98;;
5343;SDS011;2694;48.954;8.928;2023-03-31T01:59:53;6.32;;;1.38;;
5343;SDS011;2694;48.954;8.928;2023-03-31T02:02:27;8.57;;;1.40;;
5343;SDS011;2694;48.954;8.928;2023-03-31T02:04:58;5.95;;;1.70;;
5343;SDS011;2694;48.954;8.928;2023-03-31T02:07:28;9.75;;;1.80;;
5343;SDS011;2694;48.954;8.928;2023-03-31T02:10:00;6.07;;;1.10;;
5343;SDS011;2694;48.954;8.928;2023-03-31T02:12:31;9.10;;;1.10;;
5343;SDS011;2694;48.954;8.928;2023-03-31T02:15:02;7.15;;;1.90;;
5343;SDS011;2694;48.954;8.928;2023-03-31T02:17:33;7.70;;;1.40;;
5343;SDS011;2694;48.954;8.928;2023-03-31T02:20:05;7.70;;;1.40;;
5343;SDS011;2694;48.954;8.928;2023-03-31T02:22:36;7.65;;;1.50;;
5343;SDS011;2694;48.954;8.928;2023-03-31T02:25:06;5.10;;;1.30;;
5343;SDS011;2694;48.954;8.928;2023-03-31T02:27:37;4.30;;;1.50;;
5343;SDS011;2694;48.954;8.928;2023-03-31T02:30:07;5.75;;;1.10;;
5343;SDS011;2694;48.954;8.928;2023-03-31T02:32:36;8.18;;;1.38;;
5343;SDS011;2694;48.954;8.928;2023-03-31T02:35:04;4.93;;;1.40;;
5343;SDS011;2694;48.954;8.928;2023-03-31T02:37:34;10.38;;;2.40;;
5343;SDS011;2694;48.954;8.928;2023-03-31T02:40:04;6.60;;;1.30;;
5343;SDS011;2694;48.954;8.928;2023-03-31T02:42:34;7.57;;;1.40;;
5343;SDS011;2694;48.954;8.928;2023-03-31T02:45:04;5.50;;;1.30;;
5343;SDS011;2694;48.954;8.928;2023-03-31T02:47:32;4.82;;;1.00;;
5343;SDS011;2694;48.954;8.928;2023-03-31T02:50:00;4.57;;;0.80;;
5343;SDS011;2694;48.954;8.928;2023-03-31T02:52:33;5.40;;;1.00;;
5343;SDS011;2694;48.954;8.928;2023-03-31T02:55:21;6.25;;;1.10;;
5343;SDS011;2694;48.954;8.928;2023-03-31T02:58:08;4.07;;;1.20;;
5343;SDS011;2694;48.954;8.928;2023-03-31T03:01:05;4.38;;;0.90;;
5343;SDS011;2694;48.954;8.928;2023-03-31T03:03:39;4.38;;;1.23;;
5343;SDS011;2694;48.954;8.928;2023-03-31T03:06:23;3.73;;;1.00;;
5343;SDS011;2694;48.954;8.928;2023-03-31T03:09:13;4.65;;;1.10;;
5343;SDS011;2694;48.954;8.928;2023-03-31T03:11:51;3.63;;;1.10;;
5343;SDS011;2694;48.954;8.928;2023-03-31T03:14:27;4.43;;;1.10;;
5343;SDS011;2694;48.954;8.928;2023-03-31T03:17:01;3.53;;;1.13;;
5343;SDS011;2694;48.954;8.928;2023-03-31T03:19:34;8.10;;;1.40;;
5343;SDS011;2694;48.954;8.928;2023-03-31T03:22:01;4.50;;;1.58;;
5343;SDS011;2694;48.954;8.928;2023-03-31T03:24:28;4.90;;;1.70;;
5343;SDS011;2694;48.954;8.928;2023-03-31T03:26:58;4.50;;;1.50;;
5343;SDS011;2694;48.954;8.928;2023-03-31T03:29:27;6.82;;;1.40;;
5343;SDS011;2694;48.954;8.928;2023-03-31T03:31:54;5.00;;;1.38;;
5343;SDS011;2694;48.954;8.928;2023-03-31T03:34:22;4.13;;;1.00;;
5343;SDS011;2694;48.954;8.928;2023-03-31T03:36:49;3.63;;;1.30;;
5343;SDS011;2694;48.954;8.928;2023-03-31T03:39:17;3.78;;;1.40;;
5343;SDS011;2694;48.954;8.928;2023-03-31T03:41:44;6.38;;;2.35;;
5343;SDS011;2694;48.954;8.928;2023-03-31T03:44:11;7.40;;;1.90;;
5343;SDS011;2694;48.954;8.928;2023-03-31T03:46:39;3.47;;;1.27;;
5343;SDS011;2694;48.954;8.928;2023-03-31T03:49:06;4.20;;;1.17;;
5343;SDS011;2694;48.954;8.928;2023-03-31T03:51:33;4.40;;;1.50;;
5343;SDS011;2694;48.954;8.928;2023-03-31T03:54:00;20.30;;;7.93;;
5343;SDS011;2694;48.954;8.928;2023-03-31T03:56:27;6.30;;;2.10;;
5343;SDS011;2694;48.954;8.928;2023-03-31T03:58:53;6.60;;;1.40;;
5343;SDS011;2694;48.954;8.928;2023-03-31T04:01:21;7.70;;;1.48;;
5343;SDS011;2694;48.954;8.928;2023-03-31T04:03:50;8.10;;;1.50;;
5343;SDS011;2694;48.954;8.928;2023-03-31T04:06:17;3.80;;;1.70;;
5343;SDS011;2694;48.954;8.928;2023-03-31T04:08:43;3.60;;;1.43;;
5343;SDS011;2694;48.954;8.928;2023-03-31T04:11:11;4.95;;;1.60;;
5343;SDS011;2694;48.954;8.928;2023-03-31T04:13:41;5.20;;;1.53;;
5343;SDS011;2694;48.954;8.928;2023-03-31T04:16:08;5.93;;;1.73;;
5343;SDS011;2694;48.954;8.928;2023-03-31T04:18:35;5.40;;;2.10;;
5343;SDS011;2694;48.954;8.928;2023-03-31T04:21:12;6.97;;;1.60;;
5343;SDS011;2694;48.954;8.928;2023-03-31T04:23:47;10.57;;;1.70;;
5343;SDS011;2694;48.954;8.928;2023-03-31T04:26:15;4.78;;;1.70;;
5343;SDS011;2694;48.954;8.928;2023-03-31T04:28:50;9.23;;;2.23;;
5343;SDS011;2694;48.954;8.928;2023-03-31T04:31:17;5.25;;;1.80;;
5343;SDS011;2694;48.954;8.928;2023-03-31T04:33:49;4.70;;;1.60;;
5343;SDS011;2694;48.954;8.928;2023-03-31T04:36:17;5.25;;;2.00;;
5343;SDS011;2694;48.954;8.928;2023-03-31T04:38:44;4.50;;;1.83;;
5343;SDS011;2694;48.954;8.928;2023-03-31T04:41:14;6.20;;;2.10;;
5343;SDS011;2694;48.954;8.928;2023-03-31T04:43:42;5.00;;;1.80;;
5343;SDS011;2694;48.954;8.928;2023-03-31T04:46:09;5.40;;;1.70;;
5343;SDS011;2694;48.954;8.928;2023-03-31T04:48:35;7.85;;;2.20;;
5343;SDS011;2694;48.954;8.928;2023-03-31T04:51:03;6.03;;;1.50;;
5343;SDS011;2694;48.954;8.928;2023-03-31T04:53:31;6.25;;;1.90;;
5343;SDS011;2694;48.954;8.928;2023-03-31T04:55:58;7.97;;;2.10;;
5343;SDS011;2694;48.954;8.928;2023-03-31T04:58:26;6.85;;;2.17;;
5343;SDS011;2694;48.954;8.928;2023-03-31T05:00:53;4.60;;;2.38;;
5343;SDS011;2694;48.954;8.928;2023-03-31T05:03:24;6.93;;;2.80;;
5343;SDS011;2694;48.954;8.928;2023-03-31T05:05:51;7.40;;;2.60;;
5343;SDS011;2694;48.954;8.928;2023-03-31T05:08:18;4.70;;;2.55;;
5343;SDS011;2694;48.954;8.928;2023-03-31T05:10:46;7.07;;;3.10;;
5343;SDS011;2694;48.954;8.928;2023-03-31T05:13:13;6.90;;;3.13;;
5343;SDS011;2694;48.954;8.928;2023-03-31T05:15:40;7.35;;;2.80;;
5343;SDS011;2694;48.954;8.928;2023-03-31T05:18:09;5.57;;;2.63;;
5343;SDS011;2694;48.954;8.928;2023-03-31T05:20:36;6.60;;;2.53;;
5343;SDS011;2694;48.954;8.928;2023-03-31T05:23:03;9.18;;;3.10;;
5343;SDS011;2694;48.954;8.928;2023-03-31T05:25:30;8.73;;;2.72;;
5343;SDS011;2694;48.954;8.928;2023-03-31T05:27:59;6.80;;;2.90;;
5343;SDS011;2694;48.954;8.928;2023-03-31T05:30:26;8.05;;;2.80;;
5343;SDS011;2694;48.954;8.928;2023-03-31T05:32:54;7.28;;;2.92;;
5343;SDS011;2694;48.954;8.928;2023-03-31T05:35:21;10.05;;;3.00;;
5343;SDS011;2694;48.954;8.928;2023-03-31T05:37:48;11.48;;;3.00;;
5343;SDS011;2694;48.954;8.928;2023-03-31T05:40:15;11.20;;;3.63;;
5343;SDS011;2694;48.954;8.928;2023-03-31T05:42:42;9.32;;;3.40;;
5343;SDS011;2694;48.954;8.928;2023-03-31T05:45:10;12.07;;;3.30;;
5343;SDS011;2694;48.954;8.928;2023-03-31T05:47:37;10.80;;;3.80;;
5343;SDS011;2694;48.954;8.928;2023-03-31T05:50:05;10.30;;;3.63;;
5343;SDS011;2694;48.954;8.928;2023-03-31T05:52:33;6.50;;;3.00;;
5343;SDS011;2694;48.954;8.928;2023-03-31T05:55:00;10.10;;;3.10;;
5343;SDS011;2694;48.954;8.928;2023-03-31T05:57:28;6.93;;;3.23;;
5343;SDS011;2694;48.954;8.928;2023-03-31T05:59:55;8.60;;;3.45;;
5343;SDS011;2694;48.954;8.928;2023-03-31T06:02:23;14.73;;;3.58;;
5343;SDS011;2694;48.954;8.928;2023-03-31T06:04:52;10.48;;;3.42;;
5343;SDS011;2694;48.954;8.928;2023-03-31T06:07:19;9.90;;;3.58;;
5343;SDS011;2694;48.954;8.928;2023-03-31T06:09:48;8.05;;;3.03;;
5343;SDS011;2694;48.954;8.928;2023-03-31T06:12:15;9.40;;;2.80;;
5343;SDS011;2694;48.954;8.928;2023-03-31T06:14:42;12.85;;;4.32;;
5343;SDS011;2694;48.954;8.928;2023-03-31T06:17:09;11.32;;;3.95;;
5343;SDS011;2694;48.954;8.928;2023-03-31T06:19:37;11.00;;;4.32;;
5343;SDS011;2694;48.954;8.928;2023-03-31T06:22:05;9.40;;;4.15;;
5343;SDS011;2694;48.954;8.928;2023-03-31T06:24:32;9.40;;;4.13;;
5343;SDS011;2694;48.954;8.928;2023-03-31T06:26:59;10.00;;;3.70;;
5343;SDS011;2694;48.954;8.928;2023-03-31T06:29:26;8.05;;;3.17;;
5343;SDS011;2694;48.954;8.928;2023-03-31T06:31:53;7.30;;;3.43;;
5343;SDS011;2694;48.954;8.928;2023-03-31T06:34:20;11.57;;;3.30;;
5343;SDS011;2694;48.954;8.928;2023-03-31T06:36:48;10.05;;;3.70;;
5343;SDS011;2694;48.954;8.928;2023-03-31T06:39:15;9.60;;;4.38;;
5343;SDS011;2694;48.954;8.928;2023-03-31T06:41:42;19.45;;;7.63;;
5343;SDS011;2694;48.954;8.928;2023-03-31T06:44:10;10.98;;;4.03;;
5343;SDS011;2694;48.954;8.928;2023-03-31T06:46:37;7.13;;;3.57;;
5343;SDS011;2694;48.954;8.928;2023-03-31T06:49:03;10.15;;;3.97;;
5343;SDS011;2694;48.954;8.928;2023-03-31T06:51:30;9.50;;;4.50;;
5343;SDS011;2694;48.954;8.928;2023-03-31T06:53:59;14.27;;;3.58;;
5343;SDS011;2694;48.954;8.928;2023-03-31T06:56:25;9.23;;;3.97;;
5343;SDS011;2694;48.954;8.928;2023-03-31T06:58:52;11.07;;;3.90;;
5343;SDS011;2694;48.954;8.928;2023-03-31T07:01:19;11.15;;;4.13;;
5343;SDS011;2694;48.954;8.928;2023-03-31T07:03:46;9.27;;;3.63;;
5343;SDS011;2694;48.954;8.928;2023-03-31T07:06:13;12.07;;;3.42;;
5343;SDS011;2694;48.954;8.928;2023-03-31T07:08:40;10.55;;;3.38;;
5343;SDS011;2694;48.954;8.928;2023-03-31T07:11:08;6.28;;;2.90;;
5343;SDS011;2694;48.954;8.928;2023-03-31T07:13:36;10.05;;;3.40;;
5343;SDS011;2694;48.954;8.928;2023-03-31T07:16:03;9.40;;;3.70;;
5343;SDS011;2694;48.954;8.928;2023-03-31T07:18:31;8.43;;;3.55;;
5343;SDS011;2694;48.954;8.928;2023-03-31T07:20:59;9.93;;;3.40;;
5343;SDS011;2694;48.954;8.928;2023-03-31T07:23:26;9.85;;;3.17;;
5343;SDS011;2694;48.954;8.928;2023-03-31T07:25:52;7.80;;;2.90;;
5343;SDS011;2694;48.954;8.928;2023-03-31T07:28:21;8.20;;;2.95;;
5343;SDS011;2694;48.954;8.928;2023-03-31T07:30:48;6.35;;;2.90;;
5343;SDS011;2694;48.954;8.928;2023-03-31T07:33:15;8.35;;;2.78;;
5343;SDS011;2694;48.954;8.928;2023-03-31T07:35:42;5.07;;;1.83;;
5343;SDS011;2694;48.954;8.928;2023-03-31T07:38:09;5.40;;;2.28;;
5343;SDS011;2694;48.954;8.928;2023-03-31T07:40:37;4.78;;;1.88;;
5343;SDS011;2694;48.954;8.928;2023-03-31T07:43:04;5.05;;;1.60;;
5343;SDS011;2694;48.954;8.928;2023-03-31T07:45:34;4.20;;;1.92;;
5343;SDS011;2694;48.954;8.928;2023-03-31T07:48:01;4.47;;;1.50;;
5343;SDS011;2694;48.954;8.928;2023-03-31T07:50:28;3.40;;;1.50;;
5343;SDS011;2694;48.954;8.928;2023-03-31T07:52:55;2.50;;;0.90;;
5343;SDS011;2694;48.954;8.928;2023-03-31T07:55:22;3.80;;;1.00;;
5343;SDS011;2694;48.954;8.928;2023-03-31T07:57:50;3.42;;;1.05;;
5343;SDS011;2694;48.954;8.928;2023-03-31T08:00:18;3.60;;;0.70;;
5343;SDS011;2694;48.954;8.928;2023-03-31T08:02:46;2.33;;;0.87;;
5343;SDS011;2694;48.954;8.928;2023-03-31T08:05:14;4.30;;;0.95;;
5343;SDS011;2694;48.954;8.928;2023-03-31T08:07:43;3.30;;;0.80;;
5343;SDS011;2694;48.954;8.928;2023-03-31T08:10:12;5.47;;;1.60;;
5343;SDS011;2694;48.954;8.928;2023-03-31T08:12:40;2.72;;;0.82;;
5343;SDS011;2694;48.954;8.928;2023-03-31T08:15:07;4.03;;;1.00;;
5343;SDS011;2694;48.954;8.928;2023-03-31T08:17:35;4.35;;;1.20;;
5343;SDS011;2694;48.954;8.928;2023-03-31T08:20:04;6.80;;;1.40;;
5343;SDS011;2694;48.954;8.928;2023-03-31T08:22:33;2.05;;;0.90;;
5343;SDS011;2694;48.954;8.928;2023-03-31T08:25:00;3.28;;;1.15;;
5343;SDS011;2694;48.954;8.928;2023-03-31T08:27:27;6.18;;;1.20;;
5343;SDS011;2694;48.954;8.928;2023-03-31T08:29:54;4.22;;;1.20;;
5343;SDS011;2694;48.954;8.928;2023-03-31T08:32:21;4.60;;;1.20;;
5343;SDS011;2694;48.954;8.928;2023-03-31T08:34:48;5.78;;;1.40;;
5343;SDS011;2694;48.954;8.928;2023-03-31T08:37:17;8.40;;;1.30;;
5343;SDS011;2694;48.954;8.928;2023-03-31T08:39:44;6.40;;;1.30;;
5343;SDS011;2694;48.954;8.928;2023-03-31T08:42:12;5.97;;;1.30;;
5343;SDS011;2694;48.954;8.928;2023-03-31T08:44:43;7.93;;;1.38;;
5343;SDS011;2694;48.954;8.928;2023-03-31T08:47:17;5.87;;;1.50;;
5343;SDS011;2694;48.954;8.928;2023-03-31T08:49:47;5.95;;;1.10;;
5343;SDS011;2694;48.954;8.928;2023-03-31T08:52:19;4.80;;;1.30;;
5343;SDS011;2694;48.954;8.928;2023-03-31T08:54:50;8.48;;;1.30;;
5343;SDS011;2694;48.954;8.928;2023-03-31T08:57:22;6.75;;;1.20;;
5343;SDS011;2694;48.954;8.928;2023-03-31T08:59:51;4.55;;;0.85;;
5343;SDS011;2694;48.954;8.928;2023-03-31T09:02:23;7.63;;;1.30;;
5343;SDS011;2694;48.954;8.928;2023-03-31T09:05:05;11.20;;;1.60;;
5343;SDS011;2694;48.954;8.928;2023-03-31T09:07:49;6.07;;;1.25;;
5343;SDS011;2694;48.954;8.928;2023-03-31T09:10:25;3.72;;;0.95;;
5343;SDS011;2694;48.954;8.928;2023-03-31T09:13:00;6.60;;;1.23;;
5343;SDS011;2694;48.954;8.928;2023-03-31T09:15:41;5.07;;;1.25;;
5343;SDS011;2694;48.954;8.928;2023-03-31T09:18:14;8.77;;;1.40;;
5343;SDS011;2694;48.954;8.928;2023-03-31T09:20:45;4.40;;;1.10;;
5343;SDS011;2694;48.954;8.928;2023-03-31T09:23:20;3.55;;;1.08;;
5343;SDS011;2694;48.954;8.928;2023-03-31T09:25:51;3.90;;;0.88;;
5343;SDS011;2694;48.954;8.928;2023-03-31T09:28:19;5.35;;;0.70;;
5343;SDS011;2694;48.954;8.928;2023-03-31T09:30:48;7.45;;;1.17;;
5343;SDS011;2694;48.954;8.928;2023-03-31T09:33:16;5.60;;;1.50;;
5343;SDS011;2694;48.954;8.928;2023-03-31T09:35:44;5.30;;;1.38;;
5343;SDS011;2694;48.954;8.928;2023-03-31T09:38:11;4.35;;;1.00;;
5343;SDS011;2694;48.954;8.928;2023-03-31T09:40:42;7.68;;;1.30;;
5343;SDS011;2694;48.954;8.928;2023-03-31T09:43:12;7.10;;;1.30;;
5343;SDS011;2694;48.954;8.928;2023-03-31T09:45:46;4.75;;;1.15;;
5343;SDS011;2694;48.954;8.928;2023-03-31T09:48:14;7.23;;;1.60;;
5343;SDS011;2694;48.954;8.928;2023-03-31T09:50:45;6.70;;;1.30;;
5343;SDS011;2694;48.954;8.928;2023-03-31T09:53:17;6.63;;;1.60;;
5343;SDS011;2694;48.954;8.928;2023-03-31T09:55:51;5.38;;;1.55;;
5343;SDS011;2694;48.954;8.928;2023-03-31T09:58:21;6.32;;;1.25;;
5343;SDS011;2694;48.954;8.928;2023-03-31T10:00:55;10.98;;;1.30;;
5343;SDS011;2694;48.954;8.928;2023-03-31T10:03:25;8.32;;;1.58;;
5343;SDS011;2694;48.954;8.928;2023-03-31T10:05:54;5.33;;;1.20;;
5343;SDS011;2694;48.954;8.928;2023-03-31T10:08:24;8.27;;;1.70;;
5343;SDS011;2694;48.954;8.928;2023-03-31T10:10:55;6.93;;;1.40;;
5343;SDS011;2694;48.954;8.928;2023-03-31T10:13:34;6.95;;;1.08;;
5343;SDS011;2694;48.954;8.928;2023-03-31T10:16:10;6.07;;;1.50;;
5343;SDS011;2694;48.954;8.928;2023-03-31T10:18:39;7.47;;;1.88;;
5343;SDS011;2694;48.954;8.928;2023-03-31T10:21:14;7.47;;;1.98;;
5343;SDS011;2694;48.954;8.928;2023-03-31T10:23:46;11.30;;;1.58;;
5343;SDS011;2694;48.954;8.928;2023-03-31T10:26:17;7.88;;;1.20;;
5343;SDS011;2694;48.954;8.928;2023-03-31T10:28:46;5.53;;;0.98;;
5343;SDS011;2694;48.954;8.928;2023-03-31T10:31:16;4.38;;;1.00;;
5343;SDS011;2694;48.954;8.928;2023-03-31T10:33:45;5.93;;;0.80;;
5343;SDS011;2694;48.954;8.928;2023-03-31T10:36:15;4.85;;;0.80;;
5343;SDS011;2694;48.954;8.928;2023-03-31T10:38:46;3.85;;;0.98;;
5343;SDS011;2694;48.954;8.928;2023-03-31T10:41:17;9.43;;;1.60;;
5343;SDS011;2694;48.954;8.928;2023-03-31T10:43:48;2.90;;;0.88;;
5343;SDS011;2694;48.954;8.928;2023-03-31T10:46:16;5.47;;;0.98;;
5343;SDS011;2694;48.954;8.928;2023-03-31T10:48:43;2.80;;;0.60;;
5343;SDS011;2694;48.954;8.928;2023-03-31T10:51:11;3.95;;;1.10;;
5343;SDS011;2694;48.954;8.928;2023-03-31T10:53:42;2.80;;;0.88;;
5343;SDS011;2694;48.954;8.928;2023-03-31T10:56:24;3.78;;;0.70;;
5343;SDS011;2694;48.954;8.928;2023-03-31T10:59:03;7.10;;;1.10;;
5343;SDS011;2694;48.954;8.928;2023-03-31T11:01:42;8.95;;;1.40;;
5343;SDS011;2694;48.954;8.928;2023-03-31T11:04:27;5.68;;;1.20;;
5343;SDS011;2694;48.954;8.928;2023-03-31T11:07:06;8.20;;;1.50;;
5343;SDS011;2694;48.954;8.928;2023-03-31T11:09:43;5.80;;;1.20;;
5343;SDS011;2694;48.954;8.928;2023-03-31T11:12:22;5.75;;;1.00;;
5343;SDS011;2694;48.954;8.928;2023-03-31T11:14:57;6.10;;;0.75;;
5343;SDS011;2694;48.954;8.928;2023-03-31T11:17:33;4.03;;;0.50;;
5343;SDS011;2694;48.954;8.928;2023-03-31T11:20:13;3.00;;;0.60;;
5343;SDS011;2694;48.954;8.928;2023-03-31T11:22:47;5.75;;;0.50;;
5343;SDS011;2694;48.954;8.928;2023-03-31T11:25:24;1.70;;;0.50;;
5343;SDS011;2694;48.954;8.928;2023-03-31T11:28:09;3.42;;;0.52;;
5343;SDS011;2694;48.954;8.928;2023-03-31T11:30:54;2.03;;;0.43;;
5343;SDS011;2694;48.954;8.928;2023-03-31T11:33:36;1.15;;;0.30;;
5343;SDS011;2694;48.954;8.928;2023-03-31T11:36:14;2.63;;;0.52;;
5343;SDS011;2694;48.954;8.928;2023-03-31T11:38:58;2.00;;;0.30;;
5343;SDS011;2694;48.954;8.928;2023-03-31T11:41:38;1.13;;;0.33;;
5343;SDS011;2694;48.954;8.928;2023-03-31T11:44:11;2.85;;;1.02;;
5343;SDS011;2694;48.954;8.928;2023-03-31T11:46:41;0.80;;;0.30;;
5343;SDS011;2694;48.954;8.928;2023-03-31T11:49:14;0.70;;;0.30;;
5343;SDS011;2694;48.954;8.928;2023-03-31T11:51:49;2.50;;;0.40;;
5343;SDS011;2694;48.954;8.928;2023-03-31T11:54:22;1.67;;;0.40;;
5343;SDS011;2694;48.954;8.928;2023-03-31T11:56:54;1.48;;;0.30;;
5343;SDS011;2694;48.954;8.928;2023-03-31T11:59:23;2.00;;;0.50;;
5343;SDS011;2694;48.954;8.928;2023-03-31T12:01:56;3.80;;;0.80;;
5343;SDS011;2694;48.954;8.928;2023-03-31T12:04:31;2.30;;;0.50;;
5343;SDS011;2694;48.954;8.928;2023-03-31T12:07:02;2.70;;;0.60;;
5343;SDS011;2694;48.954;8.928;2023-03-31T12:09:35;3.20;;;0.40;;
5343;SDS011;2694;48.954;8.928;2023-03-31T12:12:09;3.08;;;0.40;;
5343;SDS011;2694;48.954;8.928;2023-03-31T12:14:45;2.10;;;0.40;;
5343;SDS011;2694;48.954;8.928;2023-03-31T12:17:17;2.83;;;0.60;;
5343;SDS011;2694;48.954;8.928;2023-03-31T12:19:46;3.92;;;0.88;;
5343;SDS011;2694;48.954;8.928;2023-03-31T12:22:17;2.70;;;0.60;;
5343;SDS011;2694;48.954;8.928;2023-03-31T12:24:47;2.92;;;0.65;;
5343;SDS011;2694;48.954;8.928;2023-03-31T12:27:16;3.42;;;0.70;;
5343;SDS011;2694;48.954;8.928;2023-03-31T12:29:50;4.53;;;1.17;;
5343;SDS011;2694;48.954;8.928;2023-03-31T12:32:21;3.70;;;0.70;;
5343;SDS011;2694;48.954;8.928;2023-03-31T12:34:53;5.20;;;1.20;;
5343;SDS011;2694;48.954;8.928;2023-03-31T12:37:46;3.55;;;0.80;;
5343;SDS011;2694;48.954;8.928;2023-03-31T12:40:37;2.30;;;0.70;;
5343;SDS011;2694;48.954;8.928;2023-03-31T12:43:16;4.90;;;1.20;;
5343;SDS011;2694;48.954;8.928;2023-03-31T12:45:59;5.00;;;1.00;;
5343;SDS011;2694;48.954;8.928;2023-03-31T12:48:50;10.48;;;1.60;;
5343;SDS011;2694;48.954;8.928;2023-03-31T12:51:31;4.60;;;1.25;;
5343;SDS011;2694;48.954;8.928;2023-03-31T12:54:13;4.55;;;1.00;;
5343;SDS011;2694;48.954;8.928;2023-03-31T12:57:01;6.78;;;1.05;;
5343;SDS011;2694;48.954;8.928;2023-03-31T12:59:31;8.50;;;1.20;;
5343;SDS011;2694;48.954;8.928;2023-03-31T13:02:21;7.07;;;1.20;;
5343;SDS011;2694;48.954;8.928;2023-03-31T13:04:50;8.20;;;1.23;;
5343;SDS011;2694;48.954;8.928;2023-03-31T13:10:23;5.20;;;0.70;;
5343;SDS011;2694;48.954;8.928;2023-03-31T13:12:56;4.10;;;0.80;;
5343;SDS011;2694;48.954;8.928;2023-03-31T13:15:28;3.03;;;0.68;;
5343;SDS011;2694;48.954;8.928;2023-03-31T13:17:58;1.83;;;0.50;;
5343;SDS011;2694;48.954;8.928;2023-03-31T13:20:31;2.38;;;0.50;;
5343;SDS011;2694;48.954;8.928;2023-03-31T13:23:04;4.10;;;0.52;;
5343;SDS011;2694;48.954;8.928;2023-03-31T13:25:43;2.20;;;0.60;;
5343;SDS011;2694;48.954;8.928;2023-03-31T13:28:23;1.80;;;0.30;;
5343;SDS011;2694;48.954;8.928;2023-03-31T13:30:58;1.10;;;0.30;;
5343;SDS011;2694;48.954;8.928;2023-03-31T13:33:31;2.03;;;0.50;;
5343;SDS011;2694;48.954;8.928;2023-03-31T13:36:09;1.75;;;0.90;;
5343;SDS011;2694;48.954;8.928;2023-03-31T13:42:00;1.33;;;0.35;;
5343;SDS011;2694;48.954;8.928;2023-03-31T13:47:57;4.55;;;0.70;;
5343;SDS011;2694;48.954;8.928;2023-03-31T13:50:46;4.00;;;0.50;;
5343;SDS011;2694;48.954;8.928;2023-03-31T13:53:34;2.20;;;0.57;;
5343;SDS011;2694;48.954;8.928;2023-03-31T13:56:21;2.10;;;0.50;;
5343;SDS011;2694;48.954;8.928;2023-03-31T14:08:01;2.20;;;0.70;;
5343;SDS011;2694;48.954;8.928;2023-03-31T14:10:36;6.70;;;1.17;;
5343;SDS011;2694;48.954;8.928;2023-03-31T14:13:05;3.20;;;0.80;;
5343;SDS011;2694;48.954;8.928;2023-03-31T14:15:34;4.25;;;0.80;;
5343;SDS011;2694;48.954;8.928;2023-03-31T14:18:05;4.50;;;0.90;;
5343;SDS011;2694;48.954;8.928;2023-03-31T14:20:40;5.13;;;0.70;;
5343;SDS011;2694;48.954;8.928;2023-03-31T14:23:18;3.13;;;0.90;;
5343;SDS011;2694;48.954;8.928;2023-03-31T14:25:58;6.03;;;0.90;;
5343;SDS011;2694;48.954;8.928;2023-03-31T14:28:36;4.80;;;1.10;;
5343;SDS011;2694;48.954;8.928;2023-03-31T14:31:18;5.57;;;0.80;;
5343;SDS011;2694;48.954;8.928;2023-03-31T14:33:53;7.72;;;0.80;;
5343;SDS011;2694;48.954;8.928;2023-03-31T14:36:44;2.90;;;0.80;;
5343;SDS011;2694;48.954;8.928;2023-03-31T14:39:24;4.80;;;0.90;;
5343;SDS011;2694;48.954;8.928;2023-03-31T14:41:53;2.42;;;0.55;;
5343;SDS011;2694;48.954;8.928;2023-03-31T14:44:23;3.00;;;0.82;;
5343;SDS011;2694;48.954;8.928;2023-03-31T14:46:51;3.67;;;0.73;;
5343;SDS011;2694;48.954;8.928;2023-03-31T14:49:24;2.28;;;0.50;;
5343;SDS011;2694;48.954;8.928;2023-03-31T14:51:52;2.40;;;0.50;;
5343;SDS011;2694;48.954;8.928;2023-03-31T14:54:20;3.10;;;0.90;;
5343;SDS011;2694;48.954;8.928;2023-03-31T14:56:49;3.13;;;0.47;;
5343;SDS011;2694;48.954;8.928;2023-03-31T14:59:19;3.00;;;0.50;;
5343;SDS011;2694;48.954;8.928;2023-03-31T15:01:51;3.85;;;0.70;;
5343;SDS011;2694;48.954;8.928;2023-03-31T15:04:20;3.35;;;0.47;;
5343;SDS011;2694;48.954;8.928;2023-03-31T15:06:49;1.83;;;0.40;;
5343;SDS011;2694;48.954;8.928;2023-03-31T15:09:18;2.53;;;0.70;;
5343;SDS011;2694;48.954;8.928;2023-03-31T15:11:52;4.30;;;0.67;;
5343;SDS011;2694;48.954;8.928;2023-03-31T15:14:21;2.42;;;0.50;;
5343;SDS011;2694;48.954;8.928;2023-03-31T15:16:49;3.90;;;0.70;;
5343;SDS011;2694;48.954;8.928;2023-03-31T15:19:17;1.98;;;0.60;;
5343;SDS011;2694;48.954;8.928;2023-03-31T15:21:45;4.75;;;0.90;;
5343;SDS011;2694;48.954;8.928;2023-03-31T15:24:18;2.35;;;0.50;;
5343;SDS011;2694;48.954;8.928;2023-03-31T15:26:46;1.23;;;0.50;;
5343;SDS011;2694;48.954;8.928;2023-03-31T15:29:21;3.83;;;0.50;;
5343;SDS011;2694;48.954;8.928;2023-03-31T15:31:55;2.00;;;0.60;;
5343;SDS011;2694;48.954;8.928;2023-03-31T15:34:24;2.88;;;0.40;;
5343;SDS011;2694;48.954;8.928;2023-03-31T15:36:55;5.10;;;0.70;;
5343;SDS011;2694;48.954;8.928;2023-03-31T15:39:22;1.48;;;0.40;;
5343;SDS011;2694;48.954;8.928;2023-03-31T15:41:52;2.22;;;0.60;;
5343;SDS011;2694;48.954;8.928;2023-03-31T15:44:26;2.45;;;0.60;;
5343;SDS011;2694;48.954;8.928;2023-03-31T15:46:58;1.75;;;0.60;;
5343;SDS011;2694;48.954;8.928;2023-03-31T15:49:27;3.50;;;0.70;;
5343;SDS011;2694;48.954;8.928;2023-03-31T15:51:55;3.00;;;0.60;;
5343;SDS011;2694;48.954;8.928;2023-03-31T15:54:32;1.25;;;0.70;;
5343;SDS011;2694;48.954;8.928;2023-03-31T15:57:03;4.78;;;0.80;;
5343;SDS011;2694;48.954;8.928;2023-03-31T15:59:42;3.50;;;0.70;;
5343;SDS011;2694;48.954;8.928;2023-03-31T16:02:11;3.10;;;0.52;;
5343;SDS011;2694;48.954;8.928;2023-03-31T16:04:40;2.30;;;0.60;;